This is the latest recevied weather packets stored in our database for station/object KJ7HSW. If no packets are shown the sender has not sent any weather packets the latest 10 day(s).
| Time | Temp. | Humidity | Pressure | Rain* | Wind** | Luminosity | Snow |
|---|---|---|---|---|---|---|---|
| 1777833791 | 25.56° C | 31% | 1013.1 hPa | 0 mm | - | 803 W/m² | - |
| 1777833486 | 25.56° C | 33% | 1013.3 hPa | 0 mm | - | 798 W/m² | - |
| 1777833184 | 26.11° C | 32% | 1013.3 hPa | 0 mm | - | 789 W/m² | - |
| 1777832881 | 26.11° C | 32% | 1013.3 hPa | 0 mm | - | 784 W/m² | - |
| 1777832580 | 26.11° C | 31% | 1013.3 hPa | 0 mm | - | 774 W/m² | - |
| 1777832276 | 25.56° C | 33% | 1013.5 hPa | 0 mm | - | 766 W/m² | - |
| 1777831974 | 25° C | 38% | 1013.6 hPa | 0 mm | - | 757 W/m² | - |
| 1777831670 | 25° C | 33% | 1013.5 hPa | 0 mm | - | 749 W/m² | - |
| 1777831368 | 24.44° C | 36% | 1013.8 hPa | 0 mm | - | 741 W/m² | - |
| 1777831064 | 24.44° C | 35% | 1013.8 hPa | 0 mm | - | 735 W/m² | - |
| 1777830763 | 23.89° C | 38% | 1013.8 hPa | 0 mm | - | 723 W/m² | - |
| 1777830458 | 23.89° C | 38% | 1013.9 hPa | 0 mm | - | 712 W/m² | - |
| 1777830157 | 23.89° C | 37% | 1013.9 hPa | 0 mm | - | 703 W/m² | - |
| 1777829857 | 23.33° C | 38% | 1014 hPa | 0 mm | - | 693 W/m² | - |
| 1777829553 | 23.33° C | 39% | 1014 hPa | 0 mm | - | 682 W/m² | - |
| 1777829250 | 23.33° C | 37% | 1014 hPa | 0 mm | - | 670 W/m² | - |
| 1777828947 | 23.33° C | 37% | 1014.1 hPa | 0 mm | - | 660 W/m² | - |
| 1777828643 | 22.78° C | 43% | 1014.1 hPa | 0 mm | - | 647 W/m² | - |
| 1777828341 | 22.78° C | 43% | 1014.3 hPa | 0 mm | - | 636 W/m² | - |
| 1777828038 | 22.22° C | 42% | 1014.2 hPa | 0 mm | - | 622 W/m² | - |
| 1777827735 | 22.22° C | 43% | 1014.2 hPa | 0 mm | - | 608 W/m² | - |
| 1777827432 | 21.67° C | 45% | 1014.3 hPa | 0 mm | - | 592 W/m² | - |
| 1777827129 | 21.67° C | 44% | 1014.5 hPa | 0 mm | - | 569 W/m² | - |
| 1777826824 | 21.11° C | 45% | 1014.3 hPa | 0 mm | - | 568 W/m² | - |
| 1777826523 | 20.56° C | 45% | 1014.6 hPa | 0 mm | - | 552 W/m² | - |
* Rain latest hour (hover to see other rain measurements)
** Current wind speed in m/s (hover to see current wind gust speed)